createdAt,value
2024-05-09T00:00:54.159Z,100737.59
2024-05-09T00:02:14.643Z,100736.19
2024-05-09T00:03:34.992Z,100740.69
2024-05-09T00:04:55.273Z,100737.84
2024-05-09T00:06:15.388Z,100733.13
2024-05-09T00:07:35.215Z,100735.78
2024-05-09T00:08:54.902Z,100733.72
2024-05-09T00:10:25.066Z,100739.44
2024-05-09T00:11:49.323Z,100733.91
2024-05-09T00:13:10.727Z,100734.94
2024-05-09T00:14:31.528Z,100740.69
2024-05-09T00:15:50.924Z,100730.84
2024-05-09T00:17:11.307Z,100729.84
2024-05-09T00:18:32.355Z,100728.00
2024-05-09T00:19:52.765Z,100722.22
2024-05-09T00:21:12.835Z,100731.69
2024-05-09T00:22:32.400Z,100724.09
2024-05-09T00:23:52.759Z,100723.03
2024-05-09T00:25:13.368Z,100728.38
2024-05-09T00:26:33.302Z,100727.56
2024-05-09T00:27:52.993Z,100727.16
2024-05-09T00:29:25.055Z,100721.44
2024-05-09T00:30:54.447Z,100726.75
2024-05-09T00:32:23.923Z,100724.50
2024-05-09T00:33:44.411Z,100718.56
2024-05-09T00:35:05.254Z,100724.09
2024-05-09T00:36:25.308Z,100720.41
2024-05-09T00:37:45.917Z,100724.50
2024-05-09T00:39:06.086Z,100724.91
2024-05-09T00:40:35.725Z,100731.25
2024-05-09T00:41:59.741Z,100728.19
2024-05-09T00:43:19.808Z,100726.34
2024-05-09T00:44:39.688Z,100726.75
2024-05-09T00:46:00.918Z,100723.88
2024-05-09T00:47:21.573Z,100724.31
2024-05-09T00:48:41.525Z,100727.16
2024-05-09T00:50:03.097Z,100722.66
2024-05-09T00:51:24.305Z,100724.09
2024-05-09T00:52:46.016Z,100721.44
2024-05-09T00:54:06.719Z,100719.38
2024-05-09T00:55:26.969Z,100723.47
2024-05-09T00:56:48.768Z,100721.81
2024-05-09T00:58:11.281Z,100718.56
2024-05-09T00:59:31.580Z,100717.13
2024-05-09T01:00:51.787Z,100714.06
2024-05-09T01:02:11.988Z,100718.56
2024-05-09T01:03:31.848Z,100721.03
2024-05-09T01:04:58.538Z,100716.09
2024-05-09T01:06:19.843Z,100717.13
2024-05-09T01:07:39.642Z,100719.19
2024-05-09T01:08:59.201Z,100711.63
2024-05-09T01:10:37.708Z,100720.41
2024-05-09T01:11:58.216Z,100717.34
2024-05-09T01:13:18.824Z,100717.34
2024-05-09T01:14:42.745Z,100728.00
2024-05-09T01:16:02.562Z,100727.56
2024-05-09T01:17:22.628Z,100719.78
2024-05-09T01:18:42.506Z,100725.31
2024-05-09T01:20:02.636Z,100728.78
2024-05-09T01:21:22.889Z,100731.66
2024-05-09T01:22:43.597Z,100723.88
2024-05-09T01:24:03.986Z,100722.66
2024-05-09T01:25:24.481Z,100722.66
2024-05-09T01:26:53.051Z,100723.47
2024-05-09T01:28:14.142Z,100723.06
2024-05-09T01:29:33.713Z,100723.03
2024-05-09T01:30:53.581Z,100721.84
2024-05-09T01:32:14.060Z,100725.09
2024-05-09T01:33:33.924Z,100720.97
2024-05-09T01:34:53.933Z,100721.19
2024-05-09T01:36:14.261Z,100722.66
2024-05-09T01:37:34.206Z,100720.78
2024-05-09T01:38:53.569Z,100726.72
2024-05-09T01:40:18.437Z,100721.19
2024-05-09T01:41:41.812Z,100720.16
2024-05-09T01:43:02.196Z,100718.13
2024-05-09T01:44:22.968Z,100721.59
2024-05-09T01:45:45.278Z,100718.09
2024-05-09T01:47:05.506Z,100717.91
2024-05-09T01:48:26.139Z,100723.84
2024-05-09T01:49:46.000Z,100721.19
2024-05-09T01:51:05.944Z,100722.00
2024-05-09T01:52:25.957Z,100722.00
2024-05-09T01:54:36.852Z,100713.22
2024-05-09T01:55:56.213Z,100718.28
2024-05-09T01:57:34.617Z,100715.44
2024-05-09T01:59:06.349Z,100713.16
2024-05-09T02:00:37.096Z,100713.16
2024-05-09T02:02:01.178Z,100716.06
2024-05-09T02:03:21.479Z,100715.66
2024-05-09T02:04:41.756Z,100711.16
2024-05-09T02:06:03.029Z,100707.47
2024-05-09T02:07:23.234Z,100718.31
2024-05-09T02:08:45.499Z,100718.09
2024-05-09T02:10:13.629Z,100714.41
2024-05-09T02:11:44.005Z,100716.25
2024-05-09T02:13:08.750Z,100709.50
2024-05-09T02:14:29.221Z,100720.16
2024-05-09T02:15:51.265Z,100708.66
2024-05-09T02:17:10.994Z,100714.19
2024-05-09T02:18:30.711Z,100711.09
2024-05-09T02:19:53.784Z,100711.53
2024-05-09T02:21:24.164Z,100712.97
2024-05-09T02:22:43.777Z,100718.47
2024-05-09T02:24:03.099Z,100718.06
2024-05-09T02:25:26.703Z,100716.44
2024-05-09T02:26:46.699Z,100716.44
2024-05-09T02:28:07.366Z,100707.03
2024-05-09T02:29:26.976Z,100713.97
2024-05-09T02:30:46.400Z,100717.03
2024-05-09T02:32:06.689Z,100715.59
2024-05-09T02:33:26.344Z,100721.50
2024-05-09T02:34:46.792Z,100716.22
2024-05-09T02:36:10.556Z,100726.19
2024-05-09T02:37:33.761Z,100727.41
2024-05-09T02:38:57.429Z,100720.81
2024-05-09T02:40:25.232Z,100713.84
2024-05-09T02:41:49.537Z,100720.78
2024-05-09T02:43:12.724Z,100724.84
2024-05-09T02:44:34.032Z,100718.34
2024-05-09T02:45:54.595Z,100719.19
2024-05-09T02:47:14.057Z,100724.28
2024-05-09T02:48:35.105Z,100726.94
2024-05-09T02:49:55.378Z,100728.63
2024-05-09T02:51:15.314Z,100735.56
2024-05-09T02:52:36.076Z,100731.47
2024-05-09T02:53:55.792Z,100733.28
2024-05-09T02:55:15.261Z,100738.59
2024-05-09T02:56:43.715Z,100731.59
2024-05-09T02:58:03.496Z,100731.44
2024-05-09T02:59:23.099Z,100731.81
2024-05-09T03:01:31.921Z,100736.97
2024-05-09T03:02:29.782Z,100732.03
2024-05-09T03:03:51.269Z,100738.75
2024-05-09T03:05:11.144Z,100733.41
2024-05-09T03:06:30.758Z,100733.63
2024-05-09T03:07:51.313Z,100729.34
2024-05-09T03:09:11.347Z,100726.13
2024-05-09T03:10:35.771Z,100732.03
2024-05-09T03:12:18.960Z,100729.38
2024-05-09T03:13:40.464Z,100718.75
2024-05-09T03:15:35.553Z,100734.31
2024-05-09T03:17:02.955Z,100728.91
2024-05-09T03:18:25.987Z,100721.16
2024-05-09T03:19:45.555Z,100723.63
2024-05-09T03:21:07.040Z,100721.94
2024-05-09T03:22:43.734Z,100719.91
2024-05-09T03:24:31.521Z,100723.34
2024-05-09T03:25:53.114Z,100719.88
2024-05-09T03:27:19.201Z,100736.66
2024-05-09T03:28:41.071Z,100729.56
2024-05-09T03:30:01.529Z,100722.63
2024-05-09T03:31:21.349Z,100730.19
2024-05-09T03:32:43.239Z,100726.50
2024-05-09T03:34:03.438Z,100731.19
2024-05-09T03:35:23.251Z,100727.28
2024-05-09T03:36:43.339Z,100728.50
2024-05-09T03:38:04.185Z,100733.59
2024-05-09T03:39:23.615Z,100733.63
2024-05-09T03:40:45.881Z,100737.09
2024-05-09T03:42:08.667Z,100732.97
2024-05-09T03:43:29.815Z,100740.34
2024-05-09T03:44:51.599Z,100739.53
2024-05-09T03:46:12.308Z,100737.31
2024-05-09T03:47:50.591Z,100743.25
2024-05-09T03:49:10.530Z,100740.00
2024-05-09T03:50:35.467Z,100745.34
2024-05-09T03:52:04.212Z,100744.13
2024-05-09T03:53:32.563Z,100740.66
2024-05-09T03:54:52.772Z,100740.84
2024-05-09T03:56:40.284Z,100738.94
2024-05-09T03:58:00.876Z,100737.75
2024-05-09T03:59:20.862Z,100736.75
2024-05-09T04:00:41.494Z,100740.81
2024-05-09T04:02:02.214Z,100730.25
2024-05-09T04:03:21.907Z,100738.00
2024-05-09T04:04:43.711Z,100740.88
2024-05-09T04:06:58.845Z,100742.75
2024-05-09T04:08:27.682Z,100752.59
2024-05-09T04:09:47.384Z,100753.44
2024-05-09T04:11:06.965Z,100755.81
2024-05-09T04:12:38.731Z,100755.00
2024-05-09T04:13:58.886Z,100751.91
2024-05-09T04:15:19.637Z,100751.72
2024-05-09T04:16:39.744Z,100754.59
2024-05-09T04:18:00.741Z,100751.31
2024-05-09T04:19:21.771Z,100762.56
2024-05-09T04:20:41.886Z,100749.06
2024-05-09T04:22:01.714Z,100758.28
2024-05-09T04:23:21.555Z,100754.25
2024-05-09T04:24:41.632Z,100751.81
2024-05-09T04:26:03.306Z,100760.34
2024-05-09T04:27:24.280Z,100762.44
2024-05-09T04:28:44.887Z,100760.16
2024-05-09T04:30:07.990Z,100760.16
2024-05-09T04:31:35.404Z,100753.66
2024-05-09T04:32:55.626Z,100764.50
2024-05-09T04:34:16.030Z,100755.72
2024-05-09T04:35:36.686Z,100753.44
2024-05-09T04:36:59.711Z,100757.78
2024-05-09T04:38:20.744Z,100755.44
2024-05-09T04:39:44.258Z,100757.66
2024-05-09T04:41:07.796Z,100757.88
2024-05-09T04:42:27.809Z,100755.28
2024-05-09T04:43:50.064Z,100750.16
2024-05-09T04:45:10.613Z,100752.25
2024-05-09T04:46:30.502Z,100748.72
2024-05-09T04:47:50.075Z,100758.97
2024-05-09T04:49:09.933Z,100750.25
2024-05-09T04:50:36.702Z,100750.84
2024-05-09T04:51:58.888Z,100750.25
2024-05-09T04:53:19.271Z,100754.31
2024-05-09T04:54:39.245Z,100750.47
2024-05-09T04:55:59.095Z,100760.88
2024-05-09T04:57:18.994Z,100756.41
2024-05-09T04:58:39.633Z,100757.41
2024-05-09T05:00:01.544Z,100758.66
2024-05-09T05:01:21.671Z,100764.00
2024-05-09T05:02:41.534Z,100767.06
2024-05-09T05:04:02.107Z,100770.94
2024-05-09T05:05:22.037Z,100768.06
2024-05-09T05:06:42.617Z,100769.09
2024-05-09T05:08:03.034Z,100777.53
2024-05-09T05:09:22.562Z,100773.00
2024-05-09T05:10:43.203Z,100774.69
2024-05-09T05:12:22.950Z,100769.13
2024-05-09T05:13:43.607Z,100774.84
2024-05-09T05:15:03.789Z,100779.78
2024-05-09T05:16:24.459Z,100777.53
2024-05-09T05:17:44.868Z,100778.56
2024-05-09T05:19:07.570Z,100777.56
2024-05-09T05:20:33.674Z,100779.41
2024-05-09T05:21:54.138Z,100785.94
2024-05-09T05:23:15.991Z,100776.31
2024-05-09T05:24:36.598Z,100780.41
2024-05-09T05:25:56.287Z,100778.75
2024-05-09T05:27:16.965Z,100782.06
2024-05-09T05:28:37.445Z,100788.41
2024-05-09T05:29:57.416Z,100798.03
2024-05-09T05:31:17.556Z,100794.75
2024-05-09T05:32:38.578Z,100795.97
2024-05-09T05:33:58.366Z,100792.72
2024-05-09T05:35:18.114Z,100796.59
2024-05-09T05:36:37.902Z,100799.03
2024-05-09T05:37:57.818Z,100797.00
2024-05-09T05:39:17.510Z,100796.41
2024-05-09T05:40:38.935Z,100796.78
2024-05-09T05:42:01.203Z,100793.91
2024-05-09T05:43:21.642Z,100786.56
2024-05-09T05:44:42.139Z,100803.56
2024-05-09T05:46:01.519Z,100800.69
2024-05-09T05:47:23.848Z,100792.75
2024-05-09T05:48:44.637Z,100801.34
2024-05-09T05:50:07.201Z,100799.09
2024-05-09T05:51:32.867Z,100803.81
2024-05-09T05:52:53.220Z,100804.41
2024-05-09T05:54:13.187Z,100807.69
2024-05-09T05:55:33.312Z,100812.00
2024-05-09T05:56:52.929Z,100806.25
2024-05-09T05:58:13.770Z,100808.94
2024-05-09T05:59:34.352Z,100810.97
2024-05-09T06:00:54.133Z,100810.38
2024-05-09T06:02:14.980Z,100813.06
2024-05-09T06:03:35.854Z,100812.63
2024-05-09T06:04:56.451Z,100812.84
2024-05-09T06:06:16.683Z,100803.63
2024-05-09T06:07:36.952Z,100808.53
2024-05-09T06:08:57.617Z,100815.72
2024-05-09T06:10:25.134Z,100814.28
2024-05-09T06:11:46.539Z,100814.69
2024-05-09T06:13:10.404Z,100818.97
2024-05-09T06:14:31.636Z,100816.13
2024-05-09T06:15:51.597Z,100820.22
2024-05-09T06:17:12.760Z,100820.00
2024-05-09T06:18:34.030Z,100815.91
2024-05-09T06:19:54.008Z,100823.09
2024-05-09T06:21:16.770Z,100818.16
2024-05-09T06:22:36.776Z,100817.56
2024-05-09T06:23:56.652Z,100817.31
2024-05-09T06:25:17.205Z,100821.84
2024-05-09T06:26:42.087Z,100821.88
2024-05-09T06:28:03.764Z,100822.66
2024-05-09T06:29:24.439Z,100823.47
2024-05-09T06:30:44.894Z,100824.72
2024-05-09T06:32:06.010Z,100828.00
2024-05-09T06:33:26.546Z,100825.97
2024-05-09T06:34:47.195Z,100829.81
2024-05-09T06:36:07.233Z,100824.69
2024-05-09T06:37:28.353Z,100828.19
2024-05-09T06:38:48.994Z,100823.47
2024-05-09T06:40:10.140Z,100834.53
2024-05-09T06:41:30.802Z,100827.56
2024-05-09T06:42:52.972Z,100829.19
2024-05-09T06:44:12.757Z,100828.16
2024-05-09T06:45:40.993Z,100828.56
2024-05-09T06:47:00.495Z,100826.69
2024-05-09T06:48:22.090Z,100830.16
2024-05-09T06:49:43.053Z,100831.63
2024-05-09T06:51:04.745Z,100829.13
2024-05-09T06:52:24.710Z,100831.16
2024-05-09T06:53:45.936Z,100833.22
2024-05-09T06:55:07.800Z,100833.84
2024-05-09T06:56:27.240Z,100828.31
2024-05-09T06:57:47.844Z,100821.69
2024-05-09T06:59:07.946Z,100823.53
2024-05-09T07:00:35.593Z,100832.13
2024-05-09T07:01:59.869Z,100834.13
2024-05-09T07:03:20.443Z,100835.16
2024-05-09T07:04:40.475Z,100832.13
2024-05-09T07:06:00.442Z,100831.88
2024-05-09T07:07:20.574Z,100829.19
2024-05-09T07:08:41.051Z,100833.00
2024-05-09T07:10:00.722Z,100838.97
2024-05-09T07:11:21.413Z,100828.47
2024-05-09T07:12:41.834Z,100835.66
2024-05-09T07:14:02.473Z,100835.09
2024-05-09T07:15:23.186Z,100838.00
2024-05-09T07:16:44.234Z,100837.47
2024-05-09T07:18:20.773Z,100842.53
2024-05-09T07:19:41.428Z,100849.25
2024-05-09T07:21:02.554Z,100845.06
2024-05-09T07:22:24.555Z,100856.41
2024-05-09T07:23:47.265Z,100845.38
2024-05-09T07:25:07.894Z,100838.50
2024-05-09T07:26:28.064Z,100847.28
2024-05-09T07:27:48.903Z,100843.41
2024-05-09T07:29:09.461Z,100851.66
2024-05-09T07:30:33.513Z,100850.88
2024-05-09T07:31:54.979Z,100853.34
2024-05-09T07:33:16.600Z,100850.94
2024-05-09T07:34:36.571Z,100850.56
2024-05-09T07:35:56.694Z,100853.03
2024-05-09T07:37:16.697Z,100855.91
2024-05-09T07:38:36.459Z,100856.13
2024-05-09T07:39:57.222Z,100859.75
2024-05-09T07:41:16.970Z,100860.19
2024-05-09T07:42:37.387Z,100858.97
2024-05-09T07:43:57.508Z,100864.03
2024-05-09T07:47:47.893Z,100861.47
2024-05-09T07:53:34.298Z,100849.72
2024-05-09T07:54:23.558Z,100859.06
2024-05-09T07:55:43.579Z,100858.78
2024-05-09T07:57:05.086Z,100861.50
2024-05-09T07:58:26.245Z,100861.84
2024-05-09T07:59:45.605Z,100864.22
2024-05-09T08:01:06.928Z,100861.25
2024-05-09T08:02:27.921Z,100860.38
2024-05-09T08:03:47.902Z,100864.06
2024-05-09T08:05:09.008Z,100862.50
2024-05-09T08:06:29.623Z,100867.31
2024-05-09T08:07:50.874Z,100865.13
2024-05-09T08:09:16.744Z,100862.50
2024-05-09T08:10:40.973Z,100870.63
2024-05-09T08:12:01.546Z,100865.13
2024-05-09T08:13:21.866Z,100872.56
2024-05-09T08:14:45.381Z,100866.91
2024-05-09T08:16:06.813Z,100874.78
2024-05-09T08:17:27.770Z,100874.78
2024-05-09T08:18:50.224Z,100878.97
2024-05-09T08:20:11.398Z,100870.41
2024-05-09T08:21:33.361Z,100869.16
2024-05-09T08:22:53.944Z,100872.88
2024-05-09T08:24:14.225Z,100862.75
2024-05-09T08:25:34.246Z,100864.06
2024-05-09T08:26:54.380Z,100863.56
2024-05-09T08:28:14.553Z,100870.53
2024-05-09T08:29:35.959Z,100869.22
2024-05-09T08:30:57.220Z,100861.63
2024-05-09T08:32:17.542Z,100871.78
2024-05-09T08:33:46.772Z,100868.50
2024-05-09T08:35:07.522Z,100874.81
2024-05-09T08:36:28.318Z,100874.69
2024-05-09T08:37:49.355Z,100874.03
2024-05-09T08:39:10.025Z,100879.91
2024-05-09T08:40:35.443Z,100874.50
2024-05-09T08:41:57.461Z,100880.03
2024-05-09T08:43:19.420Z,100868.63
2024-05-09T08:44:40.580Z,100878.28
2024-05-09T08:46:02.733Z,100877.00
2024-05-09T08:47:23.525Z,100873.84
2024-05-09T08:48:46.464Z,100870.25
2024-05-09T08:50:13.569Z,100864.41
2024-05-09T08:51:37.631Z,100862.66
2024-05-09T08:52:58.238Z,100869.91
2024-05-09T08:54:20.247Z,100876.78
2024-05-09T08:55:43.176Z,100877.81
2024-05-09T08:57:04.890Z,100875.94
2024-05-09T08:58:26.499Z,100879.47
2024-05-09T08:59:50.925Z,100883.78
2024-05-09T09:01:12.083Z,100883.41
2024-05-09T09:02:33.335Z,100880.41
2024-05-09T09:03:53.841Z,100879.69
2024-05-09T09:05:16.561Z,100880.50
2024-05-09T09:06:37.472Z,100883.44
2024-05-09T09:07:57.804Z,100887.63
2024-05-09T09:09:18.403Z,100884.47
2024-05-09T09:10:40.028Z,100878.88
2024-05-09T09:11:59.935Z,100890.44
2024-05-09T09:13:20.828Z,100890.78
2024-05-09T09:14:41.285Z,100880.97
2024-05-09T09:16:01.905Z,100887.88
2024-05-09T09:17:22.426Z,100885.06
2024-05-09T09:18:47.339Z,100887.75
2024-05-09T09:20:13.990Z,100887.97
2024-05-09T09:21:36.324Z,100889.63
2024-05-09T09:22:57.775Z,100884.94
2024-05-09T09:24:18.406Z,100893.25
2024-05-09T09:25:41.376Z,100882.59
2024-05-09T09:27:01.019Z,100879.22
2024-05-09T09:28:23.409Z,100883.53
2024-05-09T09:29:43.200Z,100878.16
2024-05-09T09:31:04.385Z,100889.47
2024-05-09T09:32:28.200Z,100890.28
2024-05-09T09:33:49.845Z,100882.34
2024-05-09T09:35:10.922Z,100880.41
2024-05-09T09:36:31.623Z,100896.25
2024-05-09T09:37:51.662Z,100889.38
2024-05-09T09:39:17.048Z,100883.66
2024-05-09T09:40:46.711Z,100884.38
2024-05-09T09:42:11.224Z,100880.88
2024-05-09T09:43:33.057Z,100887.97
2024-05-09T09:45:02.133Z,100885.41
2024-05-09T09:46:27.891Z,100890.91
2024-05-09T09:47:50.778Z,100877.00
2024-05-09T09:49:12.040Z,100882.50
2024-05-09T09:50:35.335Z,100876.78
2024-05-09T09:51:56.276Z,100885.88
2024-05-09T09:53:16.718Z,100887.88
2024-05-09T09:54:36.754Z,100885.50
2024-05-09T09:55:58.035Z,100886.34
2024-05-09T09:57:22.098Z,100883.06
2024-05-09T09:58:44.403Z,100887.41
2024-05-09T10:00:09.626Z,100882.03
2024-05-09T10:01:34.074Z,100882.28
2024-05-09T10:02:54.261Z,100887.16
2024-05-09T10:04:17.981Z,100886.47
2024-05-09T10:05:41.318Z,100883.56
2024-05-09T10:07:08.072Z,100886.00
2024-05-09T10:08:28.546Z,100879.53
2024-05-09T10:09:49.895Z,100872.50
2024-05-09T10:11:10.721Z,100876.13
2024-05-09T10:12:31.279Z,100869.38
2024-05-09T10:13:52.756Z,100875.59
2024-05-09T10:15:13.651Z,100874.34
2024-05-09T10:16:35.164Z,100877.78
2024-05-09T10:18:05.460Z,100873.34
2024-05-09T10:19:27.484Z,100881.31
2024-05-09T10:20:48.550Z,100871.50
2024-05-09T10:22:09.031Z,100864.78
2024-05-09T10:23:31.366Z,100869.72
2024-05-09T10:24:52.537Z,100864.53
2024-05-09T10:26:12.781Z,100869.72
2024-05-09T10:27:33.899Z,100867.66
2024-05-09T10:28:57.712Z,100868.53
2024-05-09T10:30:33.697Z,100857.72
2024-05-09T10:31:59.282Z,100864.59
2024-05-09T10:33:19.442Z,100862.63
2024-05-09T10:34:40.374Z,100858.28
2024-05-09T10:36:03.143Z,100848.81
2024-05-09T10:37:28.088Z,100857.66
2024-05-09T10:38:49.219Z,100849.50
2024-05-09T10:40:23.346Z,100854.22
2024-05-09T10:41:49.498Z,100844.06
2024-05-09T10:43:09.012Z,100844.03
2024-05-09T10:44:29.548Z,100846.09
2024-05-09T10:45:50.249Z,100847.03
2024-05-09T10:47:10.405Z,100829.09
2024-05-09T10:48:31.528Z,100842.09
2024-05-09T10:49:52.334Z,100840.47
2024-05-09T10:51:13.139Z,100830.53
2024-05-09T10:52:34.792Z,100832.13
2024-05-09T10:53:56.642Z,100835.28
2024-05-09T10:55:17.682Z,100821.09
2024-05-09T10:56:38.064Z,100826.41
2024-05-09T10:57:58.048Z,100830.16
2024-05-09T10:59:17.951Z,100830.78
2024-05-09T11:00:38.443Z,100828.09
2024-05-09T11:01:59.478Z,100824.09
2024-05-09T11:03:21.347Z,100825.50
2024-05-09T11:04:45.478Z,100824.44
2024-05-09T11:06:06.619Z,100815.53
2024-05-09T11:07:27.531Z,100827.19
2024-05-09T11:08:47.523Z,100826.63
2024-05-09T11:10:12.481Z,100825.00
2024-05-09T11:11:35.359Z,100821.47
2024-05-09T11:12:55.441Z,100818.50
2024-05-09T11:14:16.451Z,100806.59
2024-05-09T11:15:40.237Z,100807.88
2024-05-09T11:17:02.983Z,100806.47
2024-05-09T11:18:26.198Z,100808.09
2024-05-09T11:19:50.975Z,100809.59
2024-05-09T11:21:11.575Z,100807.69
2024-05-09T11:22:32.376Z,100803.66
2024-05-09T11:23:52.478Z,100807.50
2024-05-09T11:25:12.678Z,100800.72
2024-05-09T11:26:32.800Z,100802.41
2024-05-09T11:27:53.031Z,100805.75
2024-05-09T11:29:15.756Z,100801.19
2024-05-09T11:30:37.843Z,100803.78
2024-05-09T11:31:57.762Z,100808.09
2024-05-09T11:33:18.966Z,100805.59
2024-05-09T11:34:40.954Z,100797.69
2024-05-09T11:36:02.369Z,100800.53
2024-05-09T11:37:22.591Z,100791.47
2024-05-09T11:38:43.464Z,100793.31
2024-05-09T11:40:05.468Z,100801.47
2024-05-09T11:41:26.535Z,100792.84
2024-05-09T11:42:48.191Z,100797.34
2024-05-09T11:44:09.378Z,100780.16
2024-05-09T11:45:29.195Z,100798.09
2024-05-09T11:46:49.335Z,100792.06
2024-05-09T11:48:09.801Z,100786.84
2024-05-09T11:49:30.247Z,100798.59
2024-05-09T11:50:50.885Z,100793.09
2024-05-09T11:52:11.849Z,100797.44
2024-05-09T11:53:32.252Z,100800.16
2024-05-09T11:54:52.694Z,100793.25
2024-05-09T11:56:14.359Z,100787.41
2024-05-09T11:57:35.094Z,100794.59
2024-05-09T11:58:55.463Z,100788.81
2024-05-09T12:00:21.037Z,100789.59
2024-05-09T12:01:49.248Z,100795.94
2024-05-09T12:03:09.507Z,100797.91
2024-05-09T12:04:29.522Z,100802.50
2024-05-09T12:05:49.906Z,100794.16
2024-05-09T12:07:12.863Z,100801.13
2024-05-09T12:08:33.379Z,100794.16
2024-05-09T12:09:52.968Z,100789.00
2024-05-09T12:11:14.078Z,100790.03
2024-05-09T12:12:37.111Z,100795.53
2024-05-09T12:13:57.351Z,100792.50
2024-05-09T12:15:17.818Z,100790.13
2024-05-09T12:16:37.984Z,100782.66
2024-05-09T12:18:00.243Z,100790.09
2024-05-09T12:19:23.633Z,100786.78
2024-05-09T12:20:44.597Z,100787.88
2024-05-09T12:22:04.933Z,100790.91
2024-05-09T12:23:25.346Z,100790.78
2024-05-09T12:24:45.462Z,100783.97
2024-05-09T12:26:05.017Z,100785.25
2024-05-09T12:27:25.436Z,100787.81
2024-05-09T12:28:45.908Z,100787.66
2024-05-09T12:30:08.968Z,100784.19
2024-05-09T12:31:32.811Z,100779.94
2024-05-09T12:32:53.371Z,100782.38
2024-05-09T12:34:15.392Z,100787.38
2024-05-09T12:35:35.923Z,100775.00
2024-05-09T12:36:56.467Z,100783.59
2024-05-09T12:38:15.825Z,100779.78
2024-05-09T12:39:36.074Z,100776.78
2024-05-09T12:40:56.935Z,100775.22
2024-05-09T12:42:26.556Z,100773.19
2024-05-09T12:43:48.767Z,100772.06
2024-05-09T12:45:09.524Z,100777.59
2024-05-09T12:46:30.957Z,100770.72
2024-05-09T12:47:51.069Z,100765.88
2024-05-09T12:49:11.770Z,100773.31
2024-05-09T12:50:34.508Z,100773.88
2024-05-09T12:51:54.807Z,100774.91
2024-05-09T12:53:14.938Z,100778.75
2024-05-09T12:54:35.677Z,100780.34
2024-05-09T12:55:59.946Z,100776.91
2024-05-09T12:57:22.494Z,100778.47
2024-05-09T12:58:43.219Z,100766.41
2024-05-09T13:00:05.745Z,100777.13
2024-05-09T13:01:28.345Z,100777.31
2024-05-09T13:02:48.692Z,100770.09
2024-05-09T13:04:09.088Z,100766.19
2024-05-09T13:05:30.088Z,100774.59
2024-05-09T13:06:50.017Z,100765.19
2024-05-09T13:08:10.522Z,100774.44
2024-05-09T13:09:30.868Z,100765.22
2024-05-09T13:10:51.096Z,100766.59
2024-05-09T13:12:11.799Z,100771.97
2024-05-09T13:13:31.640Z,100768.69
2024-05-09T13:14:52.084Z,100764.28
2024-05-09T13:16:13.303Z,100775.47
2024-05-09T13:17:34.058Z,100769.13
2024-05-09T13:18:53.791Z,100771.03
2024-05-09T13:20:22.852Z,100766.78
2024-05-09T13:21:49.891Z,100768.69
2024-05-09T13:23:10.254Z,100768.97
2024-05-09T13:24:31.266Z,100764.72
2024-05-09T13:25:51.417Z,100769.63
2024-05-09T13:27:11.988Z,100764.34
2024-05-09T13:28:32.758Z,100771.34
2024-05-09T13:29:56.317Z,100751.78
2024-05-09T13:31:17.072Z,100766.63
2024-05-09T13:32:37.390Z,100752.88
2024-05-09T13:33:57.575Z,100752.44
2024-05-09T13:35:17.991Z,100752.84
2024-05-09T13:36:38.896Z,100748.66
2024-05-09T13:37:59.689Z,100741.63
2024-05-09T13:39:20.343Z,100752.22
2024-05-09T13:40:41.110Z,100746.78
2024-05-09T13:42:04.307Z,100756.59
2024-05-09T13:43:24.543Z,100752.50
2024-05-09T13:44:44.272Z,100750.13
2024-05-09T13:46:03.877Z,100742.34
2024-05-09T13:47:24.610Z,100743.66
2024-05-09T13:48:44.459Z,100752.50
2024-05-09T13:50:06.902Z,100754.44
2024-05-09T13:51:29.395Z,100748.81
2024-05-09T13:52:49.520Z,100748.03
2024-05-09T13:54:10.211Z,100747.25
2024-05-09T13:55:30.547Z,100738.59
2024-05-09T13:56:51.433Z,100743.00
2024-05-09T13:58:11.773Z,100754.00
2024-05-09T13:59:33.222Z,100746.88
2024-05-09T14:00:55.532Z,100746.84
2024-05-09T14:02:15.511Z,100748.34
2024-05-09T14:03:36.061Z,100754.47
2024-05-09T14:04:55.816Z,100753.91
2024-05-09T14:06:16.195Z,100743.22
2024-05-09T14:07:36.395Z,100742.50
2024-05-09T14:08:56.695Z,100750.09
2024-05-09T14:10:23.247Z,100748.91
2024-05-09T14:11:49.042Z,100752.00
2024-05-09T14:13:09.676Z,100745.63
2024-05-09T14:14:29.733Z,100738.66
2024-05-09T14:15:49.747Z,100743.31
2024-05-09T14:17:09.804Z,100737.25
2024-05-09T14:18:29.675Z,100745.38
2024-05-09T14:19:49.587Z,100743.72
2024-05-09T14:21:10.498Z,100749.03
2024-05-09T14:22:31.108Z,100750.66
2024-05-09T14:23:51.867Z,100744.34
2024-05-09T14:25:12.206Z,100749.81
2024-05-09T14:26:32.689Z,100751.53
2024-05-09T14:27:53.634Z,100745.28
2024-05-09T14:29:13.311Z,100752.84
2024-05-09T14:30:37.363Z,100748.06
2024-05-09T14:31:59.193Z,100740.66
2024-05-09T14:33:24.240Z,100740.25
2024-05-09T14:34:45.088Z,100738.78
2024-05-09T14:36:06.205Z,100733.03
2024-05-09T14:37:25.741Z,100726.06
2024-05-09T14:38:46.332Z,100736.13
2024-05-09T14:40:07.476Z,100731.69
2024-05-09T14:41:32.638Z,100732.63
2024-05-09T14:42:53.206Z,100729.88
2024-05-09T14:44:13.921Z,100726.63
2024-05-09T14:45:34.327Z,100715.13
2024-05-09T14:46:54.833Z,100729.34
2024-05-09T14:48:15.440Z,100723.81
2024-05-09T14:49:35.601Z,100732.50
2024-05-09T14:50:55.534Z,100729.88
2024-05-09T14:52:17.112Z,100725.38
2024-05-09T14:53:37.729Z,100733.66
2024-05-09T14:55:00.630Z,100734.22
2024-05-09T14:56:21.270Z,100725.22
2024-05-09T14:57:41.480Z,100728.28
2024-05-09T14:59:02.403Z,100725.66
2024-05-09T15:00:28.593Z,100727.75
2024-05-09T15:01:52.916Z,100726.81
2024-05-09T15:03:13.887Z,100728.75
2024-05-09T15:04:34.029Z,100730.88
2024-05-09T15:05:54.229Z,100728.22
2024-05-09T15:07:14.760Z,100718.97
2024-05-09T15:08:35.290Z,100713.22
2024-05-09T15:09:56.114Z,100716.47
2024-05-09T15:11:16.495Z,100718.56
2024-05-09T15:12:36.666Z,100715.53
2024-05-09T15:13:57.277Z,100708.28
2024-05-09T15:15:18.002Z,100713.69
2024-05-09T15:16:38.751Z,100707.44
2024-05-09T15:17:59.784Z,100707.44
2024-05-09T15:19:20.778Z,100703.72
2024-05-09T15:20:42.641Z,100703.63
2024-05-09T15:22:04.081Z,100701.38
2024-05-09T15:23:24.634Z,100698.84
2024-05-09T15:24:45.372Z,100702.28
2024-05-09T15:26:05.694Z,100703.94
2024-05-09T15:27:26.089Z,100708.66
2024-05-09T15:28:45.919Z,100702.75
2024-05-09T15:30:10.410Z,100699.78
2024-05-09T15:31:30.535Z,100696.81
2024-05-09T15:32:52.566Z,100693.38
2024-05-09T15:34:13.696Z,100695.19
2024-05-09T15:35:34.714Z,100688.25
2024-05-09T15:36:57.828Z,100697.53
2024-05-09T15:38:18.459Z,100694.22
2024-05-09T15:39:40.164Z,100705.00
2024-05-09T15:41:00.826Z,100693.50
2024-05-09T15:42:20.920Z,100696.34